Time;durP1;ratioP1;P1;durP2;ratioP2;P2;SDS_P1;SDS_P2;PMS_P1;PMS_P2;Temp;Humidity;BMP_temperature;BMP_pressure;BME280_temperature;BME280_humidity;BME280_pressure;Samples;Min_cycle;Max_cycle;Signal;HPM_P1;HPM_P2
2023/07/10 00:00:59;;;;;;;23.93;11.47;;;18.90;99.90;;;;;;4989614;28;20508;-59
2023/07/10 00:03:25;;;;;;;20.07;10.43;;;18.90;99.90;;;;;;4990467;28;20465;-59
2023/07/10 00:05:51;;;;;;;27.43;10.83;;;18.90;99.90;;;;;;4990011;28;20847;-59
2023/07/10 00:08:17;;;;;;;23.37;10.80;;;18.90;99.90;;;;;;4989971;28;20474;-58
2023/07/10 00:10:43;;;;;;;21.93;11.10;;;18.90;99.90;;;;;;4989506;28;20196;-60
2023/07/10 00:13:11;;;;;;;24.73;10.87;;;18.90;99.90;;;;;;4990199;28;20209;-59
2023/07/10 00:15:37;;;;;;;22.60;11.10;;;18.90;99.90;;;;;;4990031;28;20424;-60
2023/07/10 00:18:17;;;;;;;20.70;11.10;;;18.80;99.90;;;;;;4989930;28;20882;-59
2023/07/10 00:20:45;;;;;;;20.70;11.67;;;18.80;99.90;;;;;;4990101;28;20389;-61
2023/07/10 00:23:10;;;;;;;28.10;11.67;;;18.80;99.90;;;;;;4989355;28;20476;-59
2023/07/10 00:25:37;;;;;;;23.47;11.13;;;18.80;99.90;;;;;;4989621;28;20428;-60
2023/07/10 00:28:07;;;;;;;17.17;10.67;;;18.80;99.90;;;;;;4989958;28;20420;-59
2023/07/10 00:30:32;;;;;;;23.53;11.67;;;18.80;99.90;;;;;;4989752;28;20442;-58
2023/07/10 00:32:58;;;;;;;19.83;11.13;;;18.80;99.90;;;;;;4989163;28;20432;-59
2023/07/10 00:35:27;;;;;;;14.80;11.60;;;18.80;99.90;;;;;;4989812;28;20188;-58
2023/07/10 00:38:03;;;;;;;17.33;10.70;;;18.80;99.90;;;;;;4989822;28;20204;-60
2023/07/10 00:40:33;;;;;;;21.93;11.13;;;18.80;99.90;;;;;;4989732;28;20507;-59
2023/07/10 00:43:11;;;;;;;26.23;11.70;;;18.80;99.90;;;;;;4988972;28;20500;-59
2023/07/10 00:45:37;;;;;;;28.17;11.13;;;18.80;99.90;;;;;;4989676;28;20513;-59
2023/07/10 00:48:21;;;;;;;16.90;11.93;;;18.80;99.90;;;;;;4989485;28;20510;-59
2023/07/10 00:50:50;;;;;;;19.83;10.90;;;18.80;99.90;;;;;;4989438;28;20265;-59
2023/07/10 00:53:25;;;;;;;24.10;11.60;;;18.80;99.90;;;;;;4989731;28;20451;-59
2023/07/10 00:55:54;;;;;;;15.50;11.50;;;18.80;99.90;;;;;;4989380;28;20420;-60
2023/07/10 00:58:29;;;;;;;19.10;12.50;;;18.80;99.90;;;;;;4992764;28;20427;-59
2023/07/10 01:01:14;;;;;;;15.43;11.37;;;18.80;99.90;;;;;;4992715;28;20435;-58
2023/07/10 01:03:42;;;;;;;19.67;10.83;;;18.90;99.90;;;;;;4992846;28;20439;-59
2023/07/10 01:06:25;;;;;;;23.87;11.43;;;18.90;99.90;;;;;;4992529;28;20428;-57
2023/07/10 01:08:59;;;;;;;18.03;11.30;;;19.00;99.90;;;;;;4992992;28;20424;-59
2023/07/10 01:11:25;;;;;;;21.00;11.83;;;19.00;99.90;;;;;;4992766;28;20403;-59
2023/07/10 01:13:53;;;;;;;23.97;11.63;;;19.00;99.90;;;;;;4992639;28;20416;-60
2023/07/10 01:16:20;;;;;;;24.93;13.33;;;19.00;99.90;;;;;;4992587;28;20182;-60
2023/07/10 01:18:46;;;;;;;21.20;11.10;;;19.00;99.90;;;;;;4992261;28;20916;-60
2023/07/10 01:21:27;;;;;;;20.47;12.27;;;19.00;99.90;;;;;;4992434;28;20434;-60
2023/07/10 01:23:54;;;;;;;29.23;11.63;;;19.00;99.90;;;;;;4992969;28;20954;-60
2023/07/10 01:26:20;;;;;;;14.47;9.70;;;19.00;99.90;;;;;;4992390;28;20424;-59
2023/07/10 01:28:46;;;;;;;17.90;11.77;;;19.00;99.90;;;;;;4992511;28;20425;-60
2023/07/10 01:31:16;;;;;;;17.73;10.37;;;19.00;99.90;;;;;;4992359;28;20435;-59
2023/07/10 01:33:49;;;;;;;18.20;10.40;;;19.00;99.90;;;;;;4992177;28;20430;-58
2023/07/10 01:36:21;;;;;;;15.00;10.53;;;19.00;99.90;;;;;;4991970;28;20894;-59
2023/07/10 01:38:57;;;;;;;18.50;10.50;;;19.00;99.90;;;;;;4991807;28;20728;-60
2023/07/10 01:41:36;;;;;;;14.10;10.93;;;19.00;99.90;;;;;;4992440;28;20463;-59
2023/07/10 01:44:12;;;;;;;15.10;10.23;;;18.90;99.90;;;;;;4992314;28;20778;-60
2023/07/10 01:46:38;;;;;;;18.17;10.10;;;19.00;99.90;;;;;;4992081;28;20419;-60
2023/07/10 01:49:04;;;;;;;22.13;11.83;;;19.00;99.90;;;;;;4991790;28;20420;-59
2023/07/10 01:51:30;;;;;;;16.87;11.10;;;19.00;99.90;;;;;;4991873;28;20196;-59
2023/07/10 01:54:02;;;;;;;18.00;11.07;;;18.90;99.90;;;;;;4991832;28;20475;-60
2023/07/10 01:56:28;;;;;;;18.97;11.73;;;18.90;99.90;;;;;;4991678;28;20412;-60
2023/07/10 01:58:53;;;;;;;18.07;10.87;;;18.90;99.90;;;;;;4991981;28;20524;-58
2023/07/10 02:01:19;;;;;;;19.77;11.63;;;18.90;99.90;;;;;;4992228;28;20223;-57
2023/07/10 02:03:44;;;;;;;15.50;10.90;;;18.90;99.90;;;;;;4991762;28;20631;-60
2023/07/10 02:06:10;;;;;;;20.83;12.00;;;18.90;99.90;;;;;;4991938;28;20192;-59
2023/07/10 02:08:36;;;;;;;13.10;10.70;;;18.90;99.90;;;;;;4991200;28;20192;-59
2023/07/10 02:11:01;;;;;;;13.80;10.23;;;18.90;99.90;;;;;;4991354;28;20640;-60
2023/07/10 02:13:27;;;;;;;17.33;10.63;;;18.90;99.90;;;;;;4991909;28;20192;-59
2023/07/10 02:15:53;;;;;;;17.00;10.80;;;18.90;99.90;;;;;;4991639;28;20195;-60
2023/07/10 02:18:18;;;;;;;24.73;11.00;;;18.90;99.90;;;;;;4991956;28;20197;-59
2023/07/10 02:20:44;;;;;;;14.70;10.63;;;18.90;99.90;;;;;;4991361;28;20195;-60
2023/07/10 02:23:09;;;;;;;16.03;11.03;;;18.90;99.90;;;;;;4991769;28;20304;-60
2023/07/10 02:25:35;;;;;;;13.43;10.60;;;18.90;99.90;;;;;;4990986;28;20278;-60
2023/07/10 02:28:00;;;;;;;14.77;10.80;;;18.90;99.90;;;;;;4991316;28;20247;-60
2023/07/10 02:30:26;;;;;;;16.10;10.00;;;18.90;99.90;;;;;;4991441;28;20192;-59
2023/07/10 02:32:51;;;;;;;16.83;10.30;;;18.90;99.90;;;;;;4991428;28;20238;-60
2023/07/10 02:35:17;;;;;;;16.80;11.57;;;19.00;99.90;;;;;;4991054;28;20191;-59
2023/07/10 02:37:43;;;;;;;14.67;11.10;;;18.90;99.90;;;;;;4991351;28;20271;-59
2023/07/10 02:40:08;;;;;;;17.03;11.80;;;19.00;99.90;;;;;;4990455;28;20662;-59
2023/07/10 02:42:34;;;;;;;20.23;11.57;;;18.90;99.90;;;;;;4991119;28;20208;-60
2023/07/10 02:45:00;;;;;;;14.07;12.00;;;19.00;99.90;;;;;;4991233;28;20749;-60
2023/07/10 02:47:25;;;;;;;21.53;13.80;;;19.00;99.90;;;;;;4990870;28;20290;-59
2023/07/10 02:49:51;;;;;;;24.67;14.03;;;19.10;99.90;;;;;;4991041;28;20217;-61
2023/07/10 02:52:16;;;;;;;16.57;12.00;;;19.10;99.90;;;;;;4991026;28;20192;-60
2023/07/10 02:54:42;;;;;;;22.93;13.87;;;19.10;99.90;;;;;;4990617;28;20239;-60
2023/07/10 02:57:07;;;;;;;23.03;13.70;;;19.20;99.90;;;;;;4990946;28;20645;-60
2023/07/10 02:59:33;;;;;;;18.23;14.67;;;19.20;99.90;;;;;;4990658;28;20181;-60
2023/07/10 03:02:00;;;;;;;20.47;13.93;;;19.30;99.90;;;;;;4990890;28;20206;-61
2023/07/10 03:04:25;;;;;;;17.63;13.87;;;19.30;99.90;;;;;;4991107;28;20189;-59
2023/07/10 03:06:51;;;;;;;19.13;14.40;;;19.40;99.90;;;;;;4990967;28;20468;-61
2023/07/10 03:09:17;;;;;;;21.23;15.90;;;19.40;99.90;;;;;;4990670;28;20648;-59
2023/07/10 03:11:43;;;;;;;18.57;13.20;;;19.30;99.90;;;;;;4991273;28;20289;-61
2023/07/10 03:14:08;;;;;;;18.23;14.40;;;19.20;99.90;;;;;;4990345;28;20184;-60
2023/07/10 03:16:34;;;;;;;20.20;15.23;;;19.20;99.90;;;;;;4990774;28;20262;-61
2023/07/10 03:18:59;;;;;;;23.13;15.63;;;19.20;99.90;;;;;;4990467;28;20188;-61
2023/07/10 03:21:25;;;;;;;20.50;15.30;;;19.10;99.90;;;;;;4989967;28;20250;-58
2023/07/10 03:23:51;;;;;;;20.73;14.30;;;19.10;99.90;;;;;;4990815;28;20202;-59
2023/07/10 03:26:17;;;;;;;22.87;15.80;;;19.10;99.90;;;;;;4990673;28;20181;-59
2023/07/10 03:28:43;;;;;;;22.37;14.67;;;19.00;99.90;;;;;;4990700;28;20251;-60
2023/07/10 03:31:09;;;;;;;18.53;14.57;;;19.00;99.90;;;;;;4990558;28;20425;-59
2023/07/10 03:33:34;;;;;;;24.40;15.97;;;19.00;99.90;;;;;;4989963;28;20192;-59
2023/07/10 03:36:03;;;;;;;24.07;15.63;;;19.00;99.90;;;;;;4990560;28;20275;-59
2023/07/10 03:38:29;;;;;;;23.93;16.10;;;19.00;99.90;;;;;;4990190;28;20181;-59
2023/07/10 03:40:56;;;;;;;21.67;15.70;;;19.00;99.90;;;;;;4990391;28;20415;-59
2023/07/10 03:43:22;;;;;;;17.90;13.73;;;19.00;99.90;;;;;;4990300;28;20248;-58
2023/07/10 03:45:48;;;;;;;22.47;14.60;;;18.90;99.90;;;;;;4990517;28;20431;-59
2023/07/10 03:48:14;;;;;;;19.87;15.63;;;18.90;99.90;;;;;;4990307;28;20431;-60
2023/07/10 03:50:40;;;;;;;19.10;15.57;;;18.90;99.90;;;;;;4989599;28;20375;-58
2023/07/10 03:53:06;;;;;;;23.37;15.87;;;18.90;99.90;;;;;;4989883;28;20427;-58
2023/07/10 03:55:32;;;;;;;19.53;15.43;;;18.90;99.90;;;;;;4990001;28;20277;-59
2023/07/10 03:57:57;;;;;;;19.10;16.27;;;18.90;99.90;;;;;;4990056;28;20213;-59
2023/07/10 04:00:23;;;;;;;16.37;14.40;;;18.90;99.90;;;;;;4989701;28;20184;-58
2023/07/10 04:02:48;;;;;;;16.30;14.60;;;18.90;99.90;;;;;;4989997;28;20218;-58
2023/07/10 04:05:14;;;;;;;15.73;13.90;;;18.90;99.90;;;;;;4989572;28;20189;-58
2023/07/10 04:07:39;;;;;;;23.77;16.23;;;18.90;99.90;;;;;;4990313;28;20186;-57
2023/07/10 04:10:05;;;;;;;18.80;16.00;;;18.90;99.90;;;;;;4990092;28;20535;-57
2023/07/10 04:12:31;;;;;;;22.33;17.13;;;18.90;99.90;;;;;;4989615;28;20192;-57
2023/07/10 04:14:57;;;;;;;21.63;16.90;;;18.90;99.90;;;;;;4989901;28;20419;-57
2023/07/10 04:17:22;;;;;;;23.10;14.17;;;18.90;99.90;;;;;;4989926;28;20550;-57
2023/07/10 04:19:48;;;;;;;17.17;15.17;;;18.90;99.90;;;;;;4989971;28;20240;-57
2023/07/10 04:22:14;;;;;;;25.03;18.40;;;18.90;99.90;;;;;;4989862;28;20231;-58
2023/07/10 04:24:39;;;;;;;20.80;17.03;;;18.90;99.90;;;;;;4989596;28;20239;-58
2023/07/10 04:27:05;;;;;;;22.43;16.83;;;18.90;99.90;;;;;;4989443;28;20199;-58
2023/07/10 04:29:31;;;;;;;21.23;18.10;;;18.90;99.90;;;;;;4989406;28;20244;-58
2023/07/10 04:31:56;;;;;;;17.90;16.13;;;18.90;99.90;;;;;;4990434;28;20991;-58
2023/07/10 04:34:22;;;;;;;28.60;17.90;;;18.90;99.90;;;;;;4993552;28;20180;-59
2023/07/10 04:36:48;;;;;;;19.67;17.20;;;19.00;99.90;;;;;;4993403;28;20190;-58
2023/07/10 04:39:13;;;;;;;19.27;17.27;;;19.00;99.90;;;;;;4993164;28;20638;-58
2023/07/10 04:41:39;;;;;;;19.10;13.97;;;19.10;99.90;;;;;;4992301;28;20224;-59
2023/07/10 04:44:05;;;;;;;21.53;17.57;;;19.10;99.90;;;;;;4992984;28;20189;-58
2023/07/10 04:46:31;;;;;;;18.10;15.07;;;19.20;99.90;;;;;;4992794;28;20196;-58
2023/07/10 04:48:56;;;;;;;21.00;16.90;;;19.20;99.90;;;;;;4993089;28;20195;-57
2023/07/10 04:51:22;;;;;;;23.57;18.30;;;19.30;99.90;;;;;;4992522;28;20495;-59
2023/07/10 04:53:48;;;;;;;21.87;17.40;;;19.30;99.90;;;;;;4992784;28;20293;-58
2023/07/10 04:56:16;;;;;;;25.33;17.70;;;19.40;99.90;;;;;;4992673;28;20621;-58
2023/07/10 04:58:56;;;;;;;21.30;18.23;;;19.40;99.90;;;;;;4992659;28;20240;-59
2023/07/10 05:01:28;;;;;;;20.80;18.00;;;19.40;99.90;;;;;;4992891;28;20737;-60
2023/07/10 05:03:54;;;;;;;24.93;17.90;;;19.40;99.90;;;;;;4992064;28;20440;-58
2023/07/10 05:06:20;;;;;;;21.93;18.07;;;19.50;99.90;;;;;;4993235;28;20432;-58
2023/07/10 05:08:46;;;;;;;17.70;15.20;;;19.50;99.90;;;;;;4992749;28;20413;-58
2023/07/10 05:11:12;;;;;;;26.90;18.93;;;19.60;99.90;;;;;;4992789;28;20190;-58
2023/07/10 05:13:38;;;;;;;20.67;16.17;;;19.60;99.90;;;;;;4992722;28;20628;-58
2023/07/10 05:16:04;;;;;;;27.13;18.40;;;19.70;99.90;;;;;;4992781;28;20445;-59
2023/07/10 05:18:29;;;;;;;24.03;18.33;;;19.70;99.90;;;;;;4991903;28;20185;-59
2023/07/10 05:20:57;;;;;;;28.90;19.50;;;19.70;99.90;;;;;;4992940;28;20204;-57
2023/07/10 05:23:23;;;;;;;22.07;17.50;;;19.70;99.90;;;;;;4992698;28;20698;-58
2023/07/10 05:25:58;;;;;;;20.43;18.23;;;19.80;99.90;;;;;;4992427;28;20419;-58
2023/07/10 05:28:25;;;;;;;24.10;19.40;;;19.90;99.90;;;;;;4992608;28;20189;-59
2023/07/10 05:30:51;;;;;;;20.60;15.53;;;20.10;99.90;;;;;;4992244;28;20440;-59
2023/07/10 05:33:16;;;;;;;19.50;17.37;;;20.30;99.90;;;;;;4992400;28;20930;-60
2023/07/10 05:35:53;;;;;;;21.47;16.97;;;20.40;99.90;;;;;;4992611;28;20178;-59
2023/07/10 05:38:21;;;;;;;17.70;15.80;;;20.60;99.90;;;;;;4992177;28;20654;-60
2023/07/10 05:40:46;;;;;;;18.10;15.13;;;20.70;99.90;;;;;;4991887;28;20425;-59
2023/07/10 05:43:12;;;;;;;18.17;14.97;;;20.80;99.90;;;;;;4990616;28;20469;-60
2023/07/10 05:45:37;;;;;;;17.60;13.50;;;20.90;99.90;;;;;;4991801;28;20198;-60
2023/07/10 05:48:03;;;;;;;16.70;14.07;;;21.00;99.90;;;;;;4991488;28;20272;-59
2023/07/10 05:50:29;;;;;;;17.50;15.30;;;21.00;99.90;;;;;;4991719;28;20188;-59
2023/07/10 05:52:54;;;;;;;20.07;15.57;;;21.10;99.90;;;;;;4992036;28;20210;-57
2023/07/10 05:55:21;;;;;;;21.07;14.20;;;21.10;99.90;;;;;;4991833;28;20666;-60
2023/07/10 05:57:47;;;;;;;18.97;13.93;;;21.30;99.90;;;;;;4991854;28;20186;-57
2023/07/10 06:00:13;;;;;;;17.27;13.43;;;21.40;99.90;;;;;;4991653;28;20501;-57
2023/07/10 06:02:39;;;;;;;18.50;13.17;;;21.50;99.90;;;;;;4991421;28;20211;-57
2023/07/10 06:05:05;;;;;;;23.10;13.03;;;21.60;99.90;;;;;;4991549;28;20433;-57
2023/07/10 06:07:30;;;;;;;18.80;13.00;;;21.70;99.90;;;;;;4991456;28;20266;-59
2023/07/10 06:09:56;;;;;;;14.97;11.80;;;21.90;99.90;;;;;;4991805;28;20270;-58
2023/07/10 06:12:21;;;;;;;16.70;10.50;;;21.90;99.90;;;;;;4991442;28;20187;-59
2023/07/10 06:14:47;;;;;;;25.57;11.30;;;21.80;99.90;;;;;;4991225;28;20533;-58
2023/07/10 06:17:12;;;;;;;14.33;11.63;;;21.80;99.90;;;;;;4991805;28;20182;-59
2023/07/10 06:19:38;;;;;;;15.20;12.37;;;21.60;99.90;;;;;;4991353;28;20598;-59
2023/07/10 06:22:12;;;;;;;15.33;13.73;;;21.40;99.90;;;;;;4991536;28;20209;-60
2023/07/10 06:24:39;;;;;;;18.67;14.80;;;21.20;99.90;;;;;;4991545;28;20180;-57
2023/07/10 06:27:05;;;;;;;20.63;17.60;;;21.20;99.90;;;;;;4991148;28;20421;-61
2023/07/10 06:29:34;;;;;;;25.63;18.30;;;21.10;99.90;;;;;;4991097;28;20414;-58
2023/07/10 06:32:00;;;;;;;22.60;19.80;;;20.90;99.90;;;;;;4991355;28;20932;-60
2023/07/10 06:34:25;;;;;;;24.70;21.70;;;20.70;99.90;;;;;;4990875;28;20465;-58
2023/07/10 06:36:51;;;;;;;28.20;23.37;;;20.50;99.90;;;;;;4990995;28;20454;-61
2023/07/10 06:39:17;;;;;;;23.80;21.30;;;20.40;99.90;;;;;;4991311;28;20192;-60
2023/07/10 06:41:43;;;;;;;37.17;25.00;;;20.30;99.90;;;;;;4991639;28;20206;-59
2023/07/10 06:44:08;;;;;;;35.17;26.03;;;20.20;99.90;;;;;;4991010;28;20432;-59
2023/07/10 06:46:35;;;;;;;28.30;24.97;;;20.10;99.90;;;;;;4991055;28;20301;-60
2023/07/10 06:49:00;;;;;;;26.80;23.43;;;20.10;99.90;;;;;;4990653;28;20190;-60
2023/07/10 06:51:26;;;;;;;33.00;25.50;;;20.00;99.90;;;;;;4990659;28;20941;-57
2023/07/10 06:53:51;;;;;;;27.50;22.83;;;20.00;99.90;;;;;;4991102;28;20666;-60
2023/07/10 06:56:17;;;;;;;35.73;25.20;;;19.90;99.90;;;;;;4990836;28;20180;-59
2023/07/10 06:58:43;;;;;;;31.37;24.40;;;19.90;99.90;;;;;;4991138;28;20188;-60
2023/07/10 07:01:08;;;;;;;30.70;26.57;;;19.90;99.90;;;;;;4990772;28;20186;-60
2023/07/10 07:03:34;;;;;;;31.00;24.80;;;19.90;99.90;;;;;;4990478;28;20302;-60
2023/07/10 07:05:59;;;;;;;32.93;24.17;;;19.80;99.90;;;;;;4990895;28;20236;-60
2023/07/10 07:08:26;;;;;;;31.50;24.00;;;19.90;99.90;;;;;;4991149;28;20175;-60
2023/07/10 07:10:53;;;;;;;30.37;24.37;;;19.90;99.90;;;;;;4990794;28;20187;-59
2023/07/10 07:13:20;;;;;;;33.73;24.43;;;19.90;99.90;;;;;;4990551;28;20490;-60
2023/07/10 07:15:50;;;;;;;31.00;25.07;;;19.90;99.90;;;;;;4990553;28;20904;-60
2023/07/10 07:18:15;;;;;;;31.33;24.97;;;19.90;99.90;;;;;;4990725;28;20418;-60
2023/07/10 07:20:41;;;;;;;30.23;23.90;;;20.00;99.90;;;;;;4990607;28;20421;-60
2023/07/10 07:23:06;;;;;;;29.10;22.57;;;20.40;99.90;;;;;;4990450;28;20202;-60
2023/07/10 07:25:32;;;;;;;26.70;20.37;;;21.10;99.90;;;;;;4990631;28;20184;-59
2023/07/10 07:28:03;;;;;;;22.00;18.20;;;21.60;99.90;;;;;;4989698;28;20187;-59
2023/07/10 07:30:30;;;;;;;22.80;18.47;;;22.00;99.90;;;;;;4990470;28;20565;-58
2023/07/10 07:32:59;;;;;;;17.53;14.90;;;22.20;99.90;;;;;;4990334;28;20417;-58
2023/07/10 07:35:25;;;;;;;17.93;14.07;;;22.30;99.90;;;;;;4990824;28;20455;-59
2023/07/10 07:37:50;;;;;;;15.57;12.53;;;22.60;99.90;;;;;;4990169;28;20426;-59
2023/07/10 07:40:16;;;;;;;17.77;13.97;;;22.90;99.90;;;;;;4990395;28;20187;-59
2023/07/10 07:42:46;;;;;;;17.63;10.70;;;22.90;1.00;;;;;;4990483;28;20214;-59
2023/07/10 07:45:13;;;;;;;13.57;11.17;;;22.80;1.00;;;;;;4989990;28;20194;-59
2023/07/10 07:47:40;;;;;;;17.73;11.50;;;22.70;1.00;;;;;;4989858;28;20948;-60
2023/07/10 07:50:09;;;;;;;13.97;10.57;;;22.40;1.00;;;;;;4990303;28;20508;-60
2023/07/10 07:52:35;;;;;;;16.00;12.20;;;22.00;38.80;;;;;;4990140;28;20922;-59
2023/07/10 07:55:00;;;;;;;15.07;11.60;;;21.70;99.90;;;;;;4989867;28;20472;-60
2023/07/10 07:57:26;;;;;;;14.10;11.30;;;21.60;99.90;;;;;;4989859;28;20222;-57
2023/07/10 07:59:52;;;;;;;15.97;12.10;;;21.50;99.90;;;;;;4990221;28;20227;-60
2023/07/10 08:02:18;;;;;;;16.13;11.80;;;21.50;99.90;;;;;;4990153;28;20589;-60
2023/07/10 08:04:44;;;;;;;16.90;11.17;;;21.40;99.90;;;;;;4989796;28;20429;-59
2023/07/10 08:07:10;;;;;;;16.57;11.00;;;21.30;99.90;;;;;;4989334;28;20186;-62
2023/07/10 08:09:35;;;;;;;25.73;11.47;;;21.30;99.90;;;;;;4989890;28;20188;-60
2023/07/10 08:12:03;;;;;;;14.77;11.03;;;21.00;99.90;;;;;;4989288;28;20429;-60
2023/07/10 08:14:29;;;;;;;18.37;11.40;;;20.90;99.90;;;;;;4989435;28;20224;-59
2023/07/10 08:16:54;;;;;;;21.50;13.67;;;20.80;99.90;;;;;;4989980;28;20445;-61
2023/07/10 08:19:20;;;;;;;19.70;12.93;;;20.70;99.90;;;;;;4989713;28;20196;-61
2023/07/10 08:21:47;;;;;;;17.90;12.63;;;20.70;99.90;;;;;;4989523;28;20645;-60
2023/07/10 08:24:13;;;;;;;25.77;13.27;;;20.70;99.90;;;;;;4990258;28;20426;-61
2023/07/10 08:26:38;;;;;;;23.73;13.53;;;20.50;99.90;;;;;;4991151;28;20417;-61
2023/07/10 08:29:24;;;;;;;20.50;13.97;;;20.50;99.90;;;;;;4991611;28;20900;-61
2023/07/10 08:31:52;;;;;;;17.73;13.00;;;20.50;99.90;;;;;;4991300;28;20196;-61
2023/07/10 08:34:18;;;;;;;15.90;12.67;;;20.60;99.90;;;;;;4991479;28;20421;-60
2023/07/10 08:36:43;;;;;;;15.17;11.97;;;20.70;99.90;;;;;;4991097;28;20444;-59
2023/07/10 08:39:10;;;;;;;25.63;12.13;;;20.60;99.90;;;;;;4991363;28;20180;-61
2023/07/10 08:41:36;;;;;;;17.80;12.60;;;20.60;99.90;;;;;;4991430;28;20209;-62
2023/07/10 08:44:01;;;;;;;18.40;12.33;;;20.60;99.90;;;;;;4990813;28;20435;-62
2023/07/10 08:46:27;;;;;;;20.63;12.20;;;20.60;99.90;;;;;;4991032;28;20192;-62
2023/07/10 08:49:24;;;;;;;22.33;12.37;;;20.80;99.90;;;;;;4991105;28;20200;-62
2023/07/10 08:52:05;;;;;;;11.83;9.60;;;21.00;99.90;;;;;;4991229;28;20479;-60
2023/07/10 08:54:30;;;;;;;11.00;8.63;;;21.50;99.90;;;;;;4990809;28;20469;-62
2023/07/10 08:57:11;;;;;;;16.13;8.13;;;22.70;99.90;;;;;;4991187;28;20427;-60
2023/07/10 08:59:53;;;;;;;10.40;7.20;;;23.60;1.00;;;;;;4991184;28;20182;-60
2023/07/10 09:02:34;;;;;;;11.03;7.33;;;24.20;99.90;;;;;;4990947;28;20494;-58
2023/07/10 09:05:04;;;;;;;11.23;6.53;;;24.10;1.00;;;;;;4991038;28;20458;-59
2023/07/10 09:07:33;;;;;;;11.10;7.07;;;24.10;1.00;;;;;;4990709;28;20421;-60
2023/07/10 09:10:03;;;;;;;13.70;8.00;;;23.70;99.90;;;;;;4990954;28;20420;-60
2023/07/10 09:12:37;;;;;;;13.83;8.40;;;23.00;1.00;;;;;;4990685;28;20525;-59
2023/07/10 09:15:15;;;;;;;13.43;7.87;;;23.00;1.00;;;;;;4990528;28;20914;-59
2023/07/10 09:17:54;;;;;;;11.77;6.50;;;23.70;99.90;;;;;;4991445;28;20953;-62
2023/07/10 09:20:22;;;;;;;12.20;6.80;;;24.60;99.90;;;;;;4994343;28;20766;-60
2023/07/10 09:22:57;;;;;;;10.93;6.20;;;25.10;1.00;;;;;;4993622;28;20570;-60
2023/07/10 09:25:23;;;;;;;8.60;6.80;;;25.30;1.00;;;;;;4994072;28;20412;-61
2023/07/10 09:27:49;;;;;;;9.17;6.10;;;25.30;1.00;;;;;;4993665;28;20422;-60
2023/07/10 09:30:35;;;;;;;9.40;6.30;;;24.80;1.00;;;;;;4993662;28;20420;-59
2023/07/10 09:33:03;;;;;;;12.10;6.10;;;25.20;1.00;;;;;;4994079;28;20174;-63
2023/07/10 09:35:29;;;;;;;7.33;5.63;;;25.30;1.00;;;;;;4993845;28;20439;-61
2023/07/10 09:37:55;;;;;;;7.57;5.90;;;24.80;1.00;;;;;;4993858;28;20419;-61
2023/07/10 09:40:41;;;;;;;8.90;5.70;;;24.60;1.00;;;;;;4993783;28;21024;-61
2023/07/10 09:43:12;;;;;;;7.13;5.90;;;24.60;1.00;;;;;;4993704;28;20226;-61
2023/07/10 09:45:44;;;;;;;11.37;5.63;;;25.20;1.00;;;;;;4993858;28;20469;-60
2023/07/10 09:48:23;;;;;;;7.83;5.23;;;25.50;1.00;;;;;;4993469;28;20441;-60
2023/07/10 09:50:51;;;;;;;9.07;5.07;;;25.40;1.00;;;;;;4993872;28;20444;-59
2023/07/10 09:53:32;;;;;;;7.20;5.03;;;25.10;1.00;;;;;;4993650;28;20426;-59
2023/07/10 09:55:58;;;;;;;6.43;4.20;;;25.40;1.00;;;;;;4993309;28;20413;-60
2023/07/10 09:58:23;;;;;;;4.53;3.97;;;25.70;1.00;;;;;;4993223;28;20904;-60
2023/07/10 10:00:49;;;;;;;5.70;4.13;;;25.50;1.00;;;;;;4993209;28;20431;-60
2023/07/10 10:03:24;;;;;;;5.70;3.97;;;25.50;1.00;;;;;;4993641;28;20244;-60
2023/07/10 10:05:54;;;;;;;4.70;3.90;;;25.80;1.00;;;;;;4993343;28;20465;-60
2023/07/10 10:08:28;;;;;;;8.00;3.70;;;26.10;1.00;;;;;;4993309;28;20424;-59
2023/07/10 10:11:05;;;;;;;9.43;4.03;;;26.10;1.00;;;;;;4992884;28;20436;-59
2023/07/10 10:13:37;;;;;;;6.00;4.03;;;26.50;1.00;;;;;;4993335;28;20499;-58
2023/07/10 10:16:24;;;;;;;6.77;4.13;;;26.80;1.00;;;;;;4993275;28;20416;-59
2023/07/10 10:18:55;;;;;;;6.50;4.03;;;27.50;1.00;;;;;;4993167;28;20876;-58
2023/07/10 10:21:22;;;;;;;7.60;3.80;;;27.60;1.00;;;;;;4993246;28;20496;-56
2023/07/10 10:23:51;;;;;;;6.80;3.80;;;27.50;1.00;;;;;;4992848;28;20431;-58
2023/07/10 10:26:25;;;;;;;7.47;4.17;;;27.00;1.00;;;;;;4993165;28;20421;-59
2023/07/10 10:29:14;;;;;;;7.33;4.03;;;26.60;1.00;;;;;;4992675;28;21019;-59
2023/07/10 10:31:48;;;;;;;7.40;3.93;;;26.10;1.00;;;;;;4992875;28;20900;-60
2023/07/10 10:34:40;;;;;;;6.13;3.60;;;26.30;1.00;;;;;;4992902;28;20500;-60
2023/07/10 10:37:08;;;;;;;5.30;3.60;;;26.50;1.00;;;;;;4993018;28;20419;-60
2023/07/10 10:39:38;;;;;;;4.80;3.47;;;27.00;1.00;;;;;;4993152;28;20424;-59
2023/07/10 10:42:28;;;;;;;4.50;3.30;;;28.10;1.00;;;;;;4992844;28;20848;-58
2023/07/10 10:45:11;;;;;;;5.17;3.57;;;28.50;1.00;;;;;;4992897;28;20413;-58
2023/07/10 10:47:45;;;;;;;7.60;3.00;;;28.50;1.00;;;;;;4993030;28;20428;-58
2023/07/10 10:50:19;;;;;;;3.47;3.00;;;28.70;1.00;;;;;;4992895;28;20430;-59
2023/07/10 10:53:09;;;;;;;4.20;3.53;;;27.90;1.00;;;;;;4992983;28;20502;-58
2023/07/10 10:55:43;;;;;;;4.23;3.27;;;27.10;1.00;;;;;;4992433;28;20468;-58
2023/07/10 10:58:27;;;;;;;6.80;4.07;;;26.10;1.00;;;;;;4992679;28;20931;-60
2023/07/10 11:01:11;;;;;;;4.60;3.73;;;25.60;1.00;;;;;;4991593;28;20489;-59
2023/07/10 11:03:43;;;;;;;6.00;4.13;;;25.30;1.00;;;;;;4990604;28;20471;-59
2023/07/10 11:06:29;;;;;;;6.10;4.03;;;25.30;1.00;;;;;;4990500;28;20444;-60
2023/07/10 11:09:00;;;;;;;5.57;3.70;;;25.40;1.00;;;;;;5020649;28;20420;-58
2023/07/10 11:11:30;;;;;;;4.60;3.80;;;25.70;1.00;;;;;;4990675;28;20432;-59
2023/07/10 11:13:56;;;;;;;5.00;4.13;;;25.80;1.00;;;;;;4990598;28;20427;-58
2023/07/10 11:16:24;;;;;;;6.30;4.27;;;25.80;1.00;;;;;;4991038;28;20428;-58
2023/07/10 11:18:49;;;;;;;8.63;3.70;;;25.70;1.00;;;;;;4990420;28;20420;-59
2023/07/10 11:21:15;;;;;;;7.17;4.30;;;26.10;1.00;;;;;;4988502;28;20447;-59
2023/07/10 11:23:41;;;;;;;6.73;4.13;;;26.50;1.00;;;;;;4989664;28;20216;-59
2023/07/10 11:26:17;;;;;;;6.07;4.80;;;27.00;1.00;;;;;;4990150;28;20520;-60
2023/07/10 11:28:58;;;;;;;5.57;3.97;;;26.90;1.00;;;;;;4990115;28;20173;-59
2023/07/10 11:31:30;;;;;;;4.97;4.07;;;27.60;1.00;;;;;;4990336;28;20468;-58
2023/07/10 11:34:04;;;;;;;5.00;3.63;;;28.20;1.00;;;;;;4990260;28;20416;-59
2023/07/10 11:36:33;;;;;;;5.47;4.13;;;29.00;1.00;;;;;;4990349;28;20460;-59
2023/07/10 11:39:16;;;;;;;6.13;3.77;;;28.90;1.00;;;;;;4990200;28;20424;-56
2023/07/10 11:41:44;;;;;;;7.37;3.13;;;29.30;1.00;;;;;;4989568;28;20423;-59
2023/07/10 11:44:28;;;;;;;4.50;3.07;;;29.80;1.00;;;;;;4990128;28;20420;-58
2023/07/10 11:46:56;;;;;;;4.00;2.87;;;30.30;1.00;;;;;;4990145;28;20469;-59
2023/07/10 11:49:24;;;;;;;3.53;3.00;;;30.90;1.00;;;;;;4990009;28;20467;-58
2023/07/10 11:52:09;;;;;;;4.13;3.47;;;31.20;1.00;;;;;;4989745;28;20424;-59
2023/07/10 11:54:43;;;;;;;4.20;2.87;;;31.60;99.90;;;;;;4989293;28;20495;-57
2023/07/10 11:57:08;;;;;;;3.00;2.60;;;31.60;99.90;;;;;;4990053;28;20416;-57
2023/07/10 11:59:48;;;;;;;5.40;2.87;;;31.80;99.90;;;;;;4990139;28;20428;-58
2023/07/10 12:02:25;;;;;;;5.07;2.67;;;31.60;99.90;;;;;;4989225;28;20567;-57
2023/07/10 12:04:50;;;;;;;2.60;2.40;;;31.10;99.90;;;;;;4989694;28;20414;-58
2023/07/10 12:07:17;;;;;;;3.43;2.37;;;30.80;99.90;;;;;;4989997;28;20867;-57
2023/07/10 12:09:42;;;;;;;3.03;2.40;;;30.40;99.90;;;;;;4989842;28;20276;-59
2023/07/10 12:12:10;;;;;;;5.27;2.80;;;30.40;99.90;;;;;;4989298;28;20523;-59
2023/07/10 12:14:36;;;;;;;6.77;3.30;;;30.30;99.90;;;;;;4989619;28;20185;-58
2023/07/10 12:17:06;;;;;;;2.93;2.67;;;30.00;99.90;;;;;;4989388;28;20473;-57
2023/07/10 12:19:36;;;;;;;3.80;2.30;;;30.10;99.90;;;;;;4989630;28;20210;-57
2023/07/10 12:22:12;;;;;;;8.23;2.57;;;30.30;99.90;;;;;;4989758;28;20502;-58
2023/07/10 12:24:45;;;;;;;3.90;2.20;;;30.40;99.90;;;;;;4989726;28;20407;-57
2023/07/10 12:27:11;;;;;;;4.00;2.50;;;31.00;99.90;;;;;;4989037;28;20400;-56
2023/07/10 12:29:38;;;;;;;4.67;3.23;;;31.30;99.90;;;;;;4989501;28;20771;-57
2023/07/10 12:32:05;;;;;;;4.67;2.80;;;31.30;99.90;;;;;;4989859;28;20713;-56
2023/07/10 12:34:32;;;;;;;4.90;2.67;;;30.80;99.90;;;;;;4989213;28;20459;-57
2023/07/10 12:36:58;;;;;;;5.03;2.37;;;31.10;99.90;;;;;;4989121;28;20923;-56
2023/07/10 12:39:24;;;;;;;6.23;2.73;;;31.10;99.90;;;;;;4989797;28;20435;-57
2023/07/10 12:41:52;;;;;;;4.20;2.30;;;31.40;99.90;;;;;;4989556;28;20491;-56
2023/07/10 12:44:24;;;;;;;4.13;2.50;;;31.40;99.90;;;;;;4989183;28;20513;-57